createdAt,value
2018-02-09T00:00:25.706Z,0.88
2018-02-09T00:01:25.761Z,0.88
2018-02-09T00:02:25.734Z,0.94
2018-02-09T00:03:25.616Z,0.94
2018-02-09T00:04:25.861Z,0.94
2018-02-09T00:05:25.778Z,1
2018-02-09T00:06:25.655Z,1
2018-02-09T00:07:25.663Z,1
2018-02-09T00:08:25.637Z,1.06
2018-02-09T00:09:25.958Z,1
2018-02-09T00:10:25.858Z,1
2018-02-09T00:11:25.847Z,0.94
2018-02-09T00:12:25.817Z,0.94
2018-02-09T00:13:25.723Z,0.94
2018-02-09T00:14:25.810Z,0.94
2018-02-09T00:15:25.873Z,0.94
2018-02-09T00:16:25.764Z,1
2018-02-09T00:17:25.693Z,1
2018-02-09T00:18:25.660Z,1
2018-02-09T00:19:25.797Z,0.94
2018-02-09T00:20:25.814Z,1
2018-02-09T00:21:25.856Z,0.94
2018-02-09T00:22:25.718Z,1
2018-02-09T00:23:25.734Z,1
2018-02-09T00:24:25.738Z,1
2018-02-09T00:25:25.667Z,1
2018-02-09T00:26:25.729Z,1
2018-02-09T00:27:25.615Z,1
2018-02-09T00:28:25.571Z,1.06
2018-02-09T00:29:25.870Z,1.06
2018-02-09T00:30:25.823Z,1
2018-02-09T00:31:25.781Z,1.06
2018-02-09T00:32:25.813Z,1.06
2018-02-09T00:33:25.704Z,1.06
2018-02-09T00:34:25.705Z,1.06
2018-02-09T00:35:25.703Z,1.06
2018-02-09T00:36:25.482Z,1.06
2018-02-09T00:37:25.513Z,1.06
2018-02-09T00:38:25.426Z,1.06
2018-02-09T00:39:25.663Z,1.06
2018-02-09T00:40:25.610Z,1.06
2018-02-09T00:41:25.596Z,1.06
2018-02-09T00:42:25.708Z,1.06
2018-02-09T00:43:25.513Z,1.06
2018-02-09T00:44:25.501Z,1.06
2018-02-09T00:45:25.662Z,1
2018-02-09T00:46:25.892Z,1
2018-02-09T00:47:25.745Z,1
2018-02-09T00:48:25.601Z,1.06
2018-02-09T00:49:25.530Z,1
2018-02-09T00:50:25.557Z,1
2018-02-09T00:51:25.510Z,1
2018-02-09T00:52:25.636Z,1.06
2018-02-09T00:53:25.496Z,1
2018-02-09T00:54:25.473Z,1
2018-02-09T00:55:25.480Z,1
2018-02-09T00:56:25.572Z,1
2018-02-09T00:57:25.588Z,1
2018-02-09T00:58:25.507Z,1.06
2018-02-09T00:59:25.639Z,1
2018-02-09T01:00:25.796Z,1
2018-02-09T01:01:25.632Z,1
2018-02-09T01:02:25.486Z,1
2018-02-09T01:03:25.570Z,1
2018-02-09T01:04:25.543Z,1
2018-02-09T01:05:25.772Z,0.94
2018-02-09T01:06:25.582Z,1
2018-02-09T01:07:26.005Z,1
2018-02-09T01:08:25.788Z,1
2018-02-09T01:09:25.781Z,1
2018-02-09T01:10:25.693Z,1.06
2018-02-09T01:11:25.749Z,1.06
2018-02-09T01:12:25.878Z,1.12
2018-02-09T01:13:25.907Z,1.12
2018-02-09T01:14:25.677Z,1.12
2018-02-09T01:15:25.778Z,1.12
2018-02-09T01:16:25.651Z,1.12
2018-02-09T01:17:25.669Z,1.12
2018-02-09T01:18:25.737Z,1.12
2018-02-09T01:19:25.660Z,1.19
2018-02-09T01:20:25.604Z,1.19
2018-02-09T01:21:25.588Z,1.12
2018-02-09T01:22:25.579Z,1.12
2018-02-09T01:23:25.833Z,1.12
2018-02-09T01:24:25.791Z,1.12
2018-02-09T01:25:25.731Z,1.12
2018-02-09T01:26:25.651Z,1.12
2018-02-09T01:27:25.716Z,1.12
2018-02-09T01:28:25.837Z,1.19
2018-02-09T01:29:25.635Z,1.12
2018-02-09T01:30:25.821Z,1.19
2018-02-09T01:32:25.546Z,1.19
2018-02-09T01:33:25.705Z,1.19
2018-02-09T01:34:25.611Z,1.19
2018-02-09T01:35:25.827Z,1.19
2018-02-09T01:36:25.635Z,1.19
2018-02-09T01:37:25.630Z,1.19
2018-02-09T01:38:25.638Z,1.19
2018-02-09T01:39:25.907Z,1.19
2018-02-09T01:40:25.848Z,1.25
2018-02-09T01:41:25.579Z,1.25
2018-02-09T01:42:25.658Z,1.19
2018-02-09T01:43:25.614Z,1.25
2018-02-09T01:44:25.578Z,1.25
2018-02-09T01:45:25.769Z,1.25
2018-02-09T01:46:25.914Z,1.25
2018-02-09T01:47:25.680Z,1.25
2018-02-09T01:48:25.712Z,1.25
2018-02-09T01:49:26.022Z,1.25
2018-02-09T01:50:25.735Z,1.19
2018-02-09T01:51:25.907Z,1.25
2018-02-09T01:52:25.698Z,1.25
2018-02-09T01:53:25.852Z,1.25
2018-02-09T01:54:25.962Z,1.25
2018-02-09T01:55:25.860Z,1.19
2018-02-09T01:56:25.739Z,1.19
2018-02-09T01:57:25.797Z,1.19
2018-02-09T01:58:25.719Z,1.19
2018-02-09T01:59:25.820Z,1.12
2018-02-09T02:00:25.937Z,1.12
2018-02-09T02:01:25.961Z,1.06
2018-02-09T02:02:25.797Z,1.06
2018-02-09T02:03:25.771Z,1
2018-02-09T02:04:25.892Z,1.06
2018-02-09T02:05:25.941Z,1
2018-02-09T02:06:25.719Z,1.06
2018-02-09T02:07:26.057Z,1.06
2018-02-09T02:08:25.757Z,1.06
2018-02-09T02:09:25.920Z,1.06
2018-02-09T02:10:25.849Z,1.06
2018-02-09T02:11:25.768Z,1.06
2018-02-09T02:12:25.936Z,1.06
2018-02-09T02:13:25.744Z,1
2018-02-09T02:14:25.706Z,1
2018-02-09T02:15:25.897Z,1.06
2018-02-09T02:16:25.835Z,1.06
2018-02-09T02:17:25.830Z,1.06
2018-02-09T02:18:25.929Z,1
2018-02-09T02:19:25.760Z,1.06
2018-02-09T02:20:25.807Z,1
2018-02-09T02:21:25.899Z,1
2018-02-09T02:22:26.083Z,1
2018-02-09T02:23:25.798Z,1
2018-02-09T02:24:26.021Z,0.94
2018-02-09T02:25:25.781Z,1
2018-02-09T02:26:25.785Z,1
2018-02-09T02:27:25.908Z,0.94
2018-02-09T02:28:25.838Z,0.94
2018-02-09T02:29:26.058Z,0.94
2018-02-09T02:30:25.837Z,0.94
2018-02-09T02:31:25.920Z,0.94
2018-02-09T02:32:25.917Z,0.94
2018-02-09T02:33:25.773Z,0.94
2018-02-09T02:34:25.914Z,0.94
2018-02-09T02:35:25.771Z,0.88
2018-02-09T02:36:25.880Z,0.94
2018-02-09T02:37:25.719Z,0.88
2018-02-09T02:38:25.710Z,0.94
2018-02-09T02:39:25.871Z,0.88
2018-02-09T02:40:25.977Z,0.88
2018-02-09T02:41:25.773Z,0.88
2018-02-09T02:42:25.872Z,0.88
2018-02-09T02:43:25.899Z,0.88
2018-02-09T02:44:25.776Z,0.88
2018-02-09T02:45:25.843Z,0.88
2018-02-09T02:46:25.972Z,0.88
2018-02-09T02:47:25.907Z,0.81
2018-02-09T02:48:25.794Z,0.88
2018-02-09T02:49:25.987Z,0.81
2018-02-09T02:50:25.879Z,0.81
2018-02-09T02:51:25.948Z,0.88
2018-02-09T02:52:25.795Z,0.88
2018-02-09T02:53:25.898Z,0.88
2018-02-09T02:54:25.899Z,0.88
2018-02-09T02:55:25.805Z,0.94
2018-02-09T02:56:26.060Z,0.94
2018-02-09T02:57:25.844Z,0.94
2018-02-09T02:58:25.896Z,1
2018-02-09T02:59:25.904Z,0.94
2018-02-09T03:00:25.706Z,0.94
2018-02-09T03:01:25.690Z,0.94
2018-02-09T03:02:25.913Z,0.94
2018-02-09T03:03:25.819Z,0.94
2018-02-09T03:04:25.889Z,0.94
2018-02-09T03:05:25.960Z,0.94
2018-02-09T03:06:25.837Z,0.94
2018-02-09T03:07:25.813Z,1.06
2018-02-09T03:08:25.683Z,0.94
2018-02-09T03:09:25.861Z,1
2018-02-09T03:10:25.626Z,0.94
2018-02-09T03:11:25.806Z,1
2018-02-09T03:12:25.787Z,1
2018-02-09T03:13:25.670Z,1
2018-02-09T03:14:25.669Z,1
2018-02-09T03:15:25.807Z,1
2018-02-09T03:16:25.797Z,1.06
2018-02-09T03:17:26.123Z,1
2018-02-09T03:18:25.856Z,1.06
2018-02-09T03:19:25.896Z,1.06
2018-02-09T03:20:25.733Z,1.12
2018-02-09T03:21:25.830Z,1.06
2018-02-09T03:22:25.781Z,1.06
2018-02-09T03:23:25.694Z,1.12
2018-02-09T03:24:25.778Z,1.12
2018-02-09T03:25:25.817Z,1.12
2018-02-09T03:26:25.730Z,1.06
2018-02-09T03:27:25.667Z,1.06
2018-02-09T03:28:25.889Z,1.12
2018-02-09T03:29:25.703Z,1.06
2018-02-09T03:30:25.606Z,1.06
2018-02-09T03:31:25.655Z,1.06
2018-02-09T03:32:25.861Z,1.06
2018-02-09T03:33:25.703Z,1.06
2018-02-09T03:34:25.819Z,1.06
2018-02-09T03:35:25.899Z,1.06
2018-02-09T03:36:25.830Z,1.12
2018-02-09T03:37:25.680Z,1.12
2018-02-09T03:38:26.016Z,1.06
2018-02-09T03:39:25.885Z,1.12
2018-02-09T03:40:25.987Z,1.12
2018-02-09T03:41:26.000Z,1.19
2018-02-09T03:42:25.975Z,1.12
2018-02-09T03:43:25.995Z,1.12
2018-02-09T03:44:26.158Z,1.12
2018-02-09T03:45:25.937Z,1.12
2018-02-09T03:46:26.041Z,1.06
2018-02-09T03:47:26.043Z,1.06
2018-02-09T03:48:26.028Z,1.06
2018-02-09T03:49:25.973Z,1.06
2018-02-09T03:50:26.022Z,1.12
2018-02-09T03:51:25.938Z,1.12
2018-02-09T03:52:25.870Z,1.12
2018-02-09T03:53:26.018Z,1.12
2018-02-09T03:54:26.008Z,1.12
2018-02-09T03:55:26.025Z,1.12
2018-02-09T03:56:25.878Z,1.19
2018-02-09T03:57:26.024Z,1.12
2018-02-09T03:58:26.046Z,1.19
2018-02-09T03:59:25.925Z,1.19
2018-02-09T04:00:26.069Z,1.19
2018-02-09T04:01:25.749Z,1.19
2018-02-09T04:02:25.945Z,1.25
2018-02-09T04:03:25.980Z,1.25
2018-02-09T04:04:25.884Z,1.25
2018-02-09T04:05:25.980Z,1.25
2018-02-09T04:06:26.081Z,1.25
2018-02-09T04:07:26.042Z,1.25
2018-02-09T04:08:26.133Z,1.19
2018-02-09T04:09:26.015Z,1.25
2018-02-09T04:10:26.223Z,1.25
2018-02-09T04:11:26.200Z,1.25
2018-02-09T04:12:26.196Z,1.25
2018-02-09T04:13:26.152Z,1.25
2018-02-09T04:14:26.197Z,1.25
2018-02-09T04:15:26.295Z,1.31
2018-02-09T04:16:26.088Z,1.25
2018-02-09T04:17:26.140Z,1.31
2018-02-09T04:18:26.033Z,1.31
2018-02-09T04:19:26.084Z,1.31
2018-02-09T04:20:26.036Z,1.31
2018-02-09T04:21:26.272Z,1.31
2018-02-09T04:22:26.156Z,1.25
2018-02-09T04:23:26.157Z,1.25
2018-02-09T04:24:26.013Z,1.25
2018-02-09T04:25:26.022Z,1.19
2018-02-09T04:26:26.052Z,1.25
2018-02-09T04:27:26.027Z,1.25
2018-02-09T04:30:38.103Z,1.25
2018-02-09T04:31:25.987Z,1.25
2018-02-09T04:32:26.180Z,1.19
2018-02-09T04:33:26.139Z,1.19
2018-02-09T04:34:26.148Z,1.19
2018-02-09T04:35:26.008Z,1.12
2018-02-09T04:36:26.014Z,1.19
2018-02-09T04:37:26.188Z,1.12
2018-02-09T04:38:26.204Z,1.19
2018-02-09T04:39:26.035Z,1.19
2018-02-09T04:40:26.332Z,1.19
2018-02-09T04:41:25.953Z,1.19
2018-02-09T04:42:26.003Z,1.19
2018-02-09T04:43:25.973Z,1.25
2018-02-09T04:44:25.904Z,1.19
2018-02-09T04:45:26.042Z,1.19
2018-02-09T04:46:26.068Z,1.12
2018-02-09T04:47:25.951Z,1.19
2018-02-09T04:48:25.896Z,1.12
2018-02-09T04:49:25.990Z,1.19
2018-02-09T04:50:25.845Z,1.19
2018-02-09T04:51:25.930Z,1.12
2018-02-09T04:52:25.967Z,1.19
2018-02-09T04:53:25.943Z,1.19
2018-02-09T04:54:25.882Z,1.12
2018-02-09T04:55:26.111Z,1.19
2018-02-09T04:56:25.813Z,1.19
2018-02-09T04:57:25.892Z,1.12
2018-02-09T04:58:25.844Z,1.12
2018-02-09T04:59:26.011Z,1.12
2018-02-09T05:00:26.072Z,1.12
2018-02-09T05:01:25.908Z,1.12
2018-02-09T05:02:25.900Z,1.12
2018-02-09T05:03:25.843Z,1.12
2018-02-09T05:04:25.838Z,1.19
2018-02-09T05:05:25.937Z,1.19
2018-02-09T05:06:25.930Z,1.19
2018-02-09T05:07:25.911Z,1.12
2018-02-09T05:08:26.076Z,1.19
2018-02-09T05:09:26.151Z,1.12
2018-02-09T05:10:26.210Z,1.19
2018-02-09T05:11:26.251Z,1.12
2018-02-09T05:12:26.099Z,1.19
2018-02-09T05:13:26.185Z,1.12
2018-02-09T05:14:26.180Z,1.19
2018-02-09T05:15:26.060Z,1.19
2018-02-09T05:16:26.101Z,1.12
2018-02-09T05:17:26.235Z,1.19
2018-02-09T05:18:26.146Z,1.19
2018-02-09T05:19:26.137Z,1.19
2018-02-09T05:20:26.154Z,1.19
2018-02-09T05:21:26.007Z,1.25
2018-02-09T05:22:26.142Z,1.19
2018-02-09T05:23:26.164Z,1.25
2018-02-09T05:24:26.219Z,1.25
2018-02-09T05:25:26.155Z,1.25
2018-02-09T05:26:26.175Z,1.25
2018-02-09T05:27:25.988Z,1.25
2018-02-09T05:28:25.980Z,1.25
2018-02-09T05:29:26.011Z,1.25
2018-02-09T05:30:26.140Z,1.25
2018-02-09T05:31:26.170Z,1.25
2018-02-09T05:32:26.204Z,1.19
2018-02-09T05:33:26.027Z,1.19
2018-02-09T05:34:26.113Z,1.19
2018-02-09T05:35:26.090Z,1.25
2018-02-09T05:36:25.948Z,1.19
2018-02-09T05:37:26.099Z,1.19
2018-02-09T05:38:26.173Z,1.19
2018-02-09T05:39:26.135Z,1.19
2018-02-09T05:40:26.103Z,1.19
2018-02-09T05:41:25.982Z,1.19
2018-02-09T05:42:26.093Z,1.19
2018-02-09T05:43:26.066Z,1.19
2018-02-09T05:44:26.143Z,1.25
2018-02-09T05:45:26.023Z,1.25
2018-02-09T05:46:25.925Z,1.25
2018-02-09T05:47:25.956Z,1.25
2018-02-09T05:48:26.052Z,1.19
2018-02-09T05:49:26.002Z,1.19
2018-02-09T05:50:25.864Z,1.19
2018-02-09T05:51:26.039Z,1.19
2018-02-09T05:52:26.010Z,1.19
2018-02-09T05:53:26.089Z,1.19
2018-02-09T05:54:26.071Z,1.19
2018-02-09T05:55:25.910Z,1.19
2018-02-09T05:56:25.907Z,1.12
2018-02-09T05:57:25.980Z,1.19
2018-02-09T05:58:26.009Z,1.12
2018-02-09T05:59:25.925Z,1.19
2018-02-09T06:00:25.872Z,1.12
2018-02-09T06:01:26.020Z,1.19
2018-02-09T06:02:25.983Z,1.19
2018-02-09T06:03:26.093Z,1.19
2018-02-09T06:04:26.062Z,1.19
2018-02-09T06:05:26.201Z,1.19
2018-02-09T06:06:26.107Z,1.19
2018-02-09T06:07:26.086Z,1.19
2018-02-09T06:08:25.930Z,1.12
2018-02-09T06:09:25.878Z,1.19
2018-02-09T06:10:25.981Z,1.12
2018-02-09T06:11:38.070Z,1.19
2018-02-09T06:12:26.122Z,1.25
2018-02-09T06:13:25.865Z,1.19
2018-02-09T06:14:25.980Z,1.19
2018-02-09T06:15:26.038Z,1.12
2018-02-09T06:16:26.161Z,1.19
2018-02-09T06:17:26.113Z,1.19
2018-02-09T06:18:26.101Z,1.19
2018-02-09T06:19:26.021Z,1.19
2018-02-09T06:20:25.926Z,1.19
2018-02-09T06:21:25.941Z,1.25
2018-02-09T06:22:26.005Z,1.19
2018-02-09T06:23:26.011Z,1.19
2018-02-09T06:24:25.984Z,1.19
2018-02-09T06:25:26.071Z,1.19
2018-02-09T06:26:26.063Z,1.19
2018-02-09T06:27:25.954Z,1.19
2018-02-09T06:28:26.053Z,1.12
2018-02-09T06:29:25.897Z,1.19
2018-02-09T06:30:25.920Z,1.12
2018-02-09T06:31:25.962Z,1.12
2018-02-09T06:32:25.963Z,1.12
2018-02-09T06:33:25.981Z,1.19
2018-02-09T06:34:26.089Z,1.12
2018-02-09T06:35:26.005Z,1.19
2018-02-09T06:36:25.954Z,1.12
2018-02-09T06:37:26.180Z,1.19
2018-02-09T06:38:26.020Z,1.19
2018-02-09T06:39:26.122Z,1.25
2018-02-09T06:40:26.011Z,1.12
2018-02-09T06:41:26.097Z,1.19
2018-02-09T06:42:26.098Z,1.19
2018-02-09T06:43:26.044Z,1.19
2018-02-09T06:44:25.933Z,1.19
2018-02-09T06:45:26.253Z,1.19
2018-02-09T06:46:26.145Z,1.12
2018-02-09T06:47:26.126Z,1.12
2018-02-09T06:48:26.129Z,1.19
2018-02-09T06:49:25.983Z,1.12
2018-02-09T06:50:26.140Z,1.12
2018-02-09T06:51:26.075Z,1.19
2018-02-09T06:52:25.910Z,1.19
2018-02-09T06:53:25.856Z,1.12
2018-02-09T06:54:26.130Z,1.19
2018-02-09T06:55:26.112Z,1.12
2018-02-09T06:56:26.162Z,1.19
2018-02-09T06:57:26.161Z,1.19
2018-02-09T06:58:25.916Z,1.19
2018-02-09T06:59:25.993Z,1.19
2018-02-09T07:00:26.000Z,1.25
2018-02-09T07:01:25.984Z,1.25
2018-02-09T07:02:26.149Z,1.25
2018-02-09T07:03:26.021Z,1.25
2018-02-09T07:04:26.162Z,1.25
2018-02-09T07:05:25.997Z,1.31
2018-02-09T07:06:26.077Z,1.25
2018-02-09T07:07:26.000Z,1.31
2018-02-09T07:08:26.073Z,1.31
2018-02-09T07:09:25.934Z,1.31
2018-02-09T07:10:26.087Z,1.31
2018-02-09T07:11:26.449Z,1.31
2018-02-09T07:12:25.932Z,1.31
2018-02-09T07:13:26.129Z,1.31
2018-02-09T07:14:26.016Z,1.31
2018-02-09T07:15:26.086Z,1.31
2018-02-09T07:16:26.152Z,1.31
2018-02-09T07:17:25.963Z,1.37
2018-02-09T07:18:25.939Z,1.31
2018-02-09T07:19:26.049Z,1.31
2018-02-09T07:20:26.082Z,1.31
2018-02-09T07:21:25.945Z,1.37
2018-02-09T07:22:26.141Z,1.37
2018-02-09T07:23:26.088Z,1.37
2018-02-09T07:24:26.169Z,1.37
2018-02-09T07:25:25.956Z,1.37
2018-02-09T07:26:26.031Z,1.44
2018-02-09T07:27:25.934Z,1.37
2018-02-09T07:28:25.977Z,1.44
2018-02-09T07:29:26.014Z,1.37
2018-02-09T07:30:25.989Z,1.44
2018-02-09T07:31:26.090Z,1.37
2018-02-09T07:32:25.922Z,1.44
2018-02-09T07:33:26.249Z,1.44
2018-02-09T07:34:25.902Z,1.44
2018-02-09T07:35:26.078Z,1.44
2018-02-09T07:36:25.921Z,1.5
2018-02-09T07:37:26.220Z,1.44
2018-02-09T07:38:26.029Z,1.5
2018-02-09T07:39:26.044Z,1.5
2018-02-09T07:40:26.050Z,1.5
2018-02-09T07:41:26.017Z,1.5
2018-02-09T07:42:26.062Z,1.44
2018-02-09T07:43:25.916Z,1.5
2018-02-09T07:44:25.985Z,1.5
2018-02-09T07:45:25.717Z,1.44
2018-02-09T07:46:25.813Z,1.5
2018-02-09T07:47:25.740Z,1.5
2018-02-09T07:48:25.892Z,1.44
2018-02-09T07:49:25.856Z,1.5
2018-02-09T07:50:25.717Z,1.5
2018-02-09T07:51:25.859Z,1.44
2018-02-09T07:52:25.751Z,1.44
2018-02-09T07:53:25.678Z,1.5
2018-02-09T07:54:25.816Z,1.5
2018-02-09T07:55:25.830Z,1.5
2018-02-09T07:56:25.898Z,1.56
2018-02-09T07:57:25.920Z,1.5
2018-02-09T07:58:25.806Z,1.5
2018-02-09T07:59:25.858Z,1.5
2018-02-09T08:00:26.140Z,1.56
2018-02-09T08:01:25.780Z,1.56
2018-02-09T08:02:25.856Z,1.5
2018-02-09T08:03:25.894Z,1.5
2018-02-09T08:04:25.745Z,1.56
2018-02-09T08:05:25.917Z,1.56
2018-02-09T08:06:25.962Z,1.56
2018-02-09T08:07:25.837Z,1.5
2018-02-09T08:08:25.852Z,1.62
2018-02-09T08:09:25.941Z,1.56
2018-02-09T08:10:25.798Z,1.56
2018-02-09T08:11:25.909Z,1.56
2018-02-09T08:12:25.754Z,1.56
2018-02-09T08:13:25.981Z,1.56
2018-02-09T08:14:25.853Z,1.56
2018-02-09T08:15:25.988Z,1.62
2018-02-09T08:16:25.786Z,1.56
2018-02-09T08:17:26.007Z,1.56
2018-02-09T08:18:25.956Z,1.56
2018-02-09T08:19:25.953Z,1.56
2018-02-09T08:20:25.860Z,1.56
2018-02-09T08:21:25.969Z,1.56
2018-02-09T08:22:26.000Z,1.56
2018-02-09T08:23:25.851Z,1.56
2018-02-09T08:24:25.740Z,1.56
2018-02-09T08:25:25.794Z,1.56
2018-02-09T08:26:25.832Z,1.56
2018-02-09T08:27:25.942Z,1.62
2018-02-09T08:28:25.741Z,1.62
2018-02-09T08:29:25.826Z,1.56
2018-02-09T08:30:25.888Z,1.62
2018-02-09T08:31:25.950Z,1.56
2018-02-09T08:32:25.894Z,1.62
2018-02-09T08:33:25.800Z,1.56
2018-02-09T08:34:25.895Z,1.62
2018-02-09T08:35:25.905Z,1.62
2018-02-09T08:36:25.940Z,1.62
2018-02-09T08:37:25.976Z,1.56
2018-02-09T08:38:25.701Z,1.62
2018-02-09T08:39:25.974Z,1.62
2018-02-09T08:40:25.827Z,1.62
2018-02-09T08:41:25.821Z,1.56
2018-02-09T08:42:25.905Z,1.62
2018-02-09T08:43:25.984Z,1.62
2018-02-09T08:44:25.698Z,1.56
2018-02-09T08:45:25.828Z,1.62
2018-02-09T08:46:25.902Z,1.62
2018-02-09T08:47:25.646Z,1.62
2018-02-09T08:48:25.930Z,1.62
2018-02-09T08:49:25.899Z,1.62
2018-02-09T08:50:25.861Z,1.62
2018-02-09T08:51:25.823Z,1.62
2018-02-09T08:52:25.891Z,1.69
2018-02-09T08:53:25.791Z,1.62
2018-02-09T08:54:25.808Z,1.62
2018-02-09T08:55:25.943Z,1.69
2018-02-09T08:56:25.847Z,1.62
2018-02-09T08:57:25.621Z,1.62
2018-02-09T08:58:25.925Z,1.62
2018-02-09T08:59:25.699Z,1.62
2018-02-09T09:00:25.769Z,1.69
2018-02-09T09:01:25.773Z,1.69
2018-02-09T09:02:25.584Z,1.69
2018-02-09T09:03:25.790Z,1.69
2018-02-09T09:04:25.695Z,1.69
2018-02-09T09:05:25.784Z,1.69
2018-02-09T09:06:25.817Z,1.69
2018-02-09T09:07:25.755Z,1.69
2018-02-09T09:08:25.708Z,1.75
2018-02-09T09:09:25.781Z,1.69
2018-02-09T09:10:25.792Z,1.75
2018-02-09T09:11:25.762Z,1.75
2018-02-09T09:12:25.706Z,1.75
2018-02-09T09:13:25.804Z,1.75
2018-02-09T09:14:25.774Z,1.81
2018-02-09T09:15:25.644Z,1.75
2018-02-09T09:16:25.776Z,1.81
2018-02-09T09:17:25.710Z,1.81
2018-02-09T09:18:25.451Z,1.81
2018-02-09T09:19:25.735Z,1.81
2018-02-09T09:20:25.504Z,1.81
2018-02-09T09:21:25.593Z,1.87
2018-02-09T09:22:25.509Z,1.81
2018-02-09T09:23:25.509Z,1.87
2018-02-09T09:24:25.541Z,1.81
2018-02-09T09:25:25.447Z,1.81
2018-02-09T09:26:25.519Z,1.81
2018-02-09T09:27:25.564Z,1.81
2018-02-09T09:28:25.655Z,1.81
2018-02-09T09:29:25.395Z,1.81
2018-02-09T09:30:25.573Z,1.87
2018-02-09T09:31:25.557Z,1.87
2018-02-09T09:32:25.576Z,1.87
2018-02-09T09:33:25.589Z,1.81
2018-02-09T09:34:25.517Z,1.87
2018-02-09T09:35:25.569Z,1.87
2018-02-09T09:36:25.559Z,1.87
2018-02-09T09:37:25.636Z,1.87
2018-02-09T09:38:25.429Z,1.87
2018-02-09T09:39:25.661Z,1.87
2018-02-09T09:40:25.553Z,1.94
2018-02-09T09:41:25.741Z,1.94
2018-02-09T09:42:25.601Z,1.94
2018-02-09T09:43:25.391Z,1.94
2018-02-09T09:44:25.634Z,1.94
2018-02-09T09:45:25.632Z,2
2018-02-09T09:46:25.618Z,2
2018-02-09T09:47:25.480Z,2
2018-02-09T09:48:25.440Z,1.94
2018-02-09T09:49:26.404Z,2
2018-02-09T09:50:26.329Z,1.94
2018-02-09T09:51:26.294Z,2
2018-02-09T09:52:26.252Z,1.94
2018-02-09T09:53:26.351Z,1.94
2018-02-09T09:54:26.322Z,1.94
2018-02-09T09:55:26.263Z,1.94
2018-02-09T09:56:26.327Z,1.94
2018-02-09T09:57:26.401Z,2
2018-02-09T09:58:26.231Z,1.94
2018-02-09T09:59:26.269Z,2
2018-02-09T10:00:26.202Z,1.94
2018-02-09T10:01:26.367Z,2
2018-02-09T10:02:26.311Z,1.94
2018-02-09T10:03:26.371Z,2
2018-02-09T10:04:26.290Z,2
2018-02-09T10:05:26.423Z,1.94
2018-02-09T10:06:26.259Z,1.94
2018-02-09T10:07:26.367Z,1.94
2018-02-09T10:08:26.374Z,2
2018-02-09T10:09:26.351Z,2
2018-02-09T10:10:26.444Z,2
2018-02-09T10:11:26.320Z,2
2018-02-09T10:12:26.238Z,2
2018-02-09T10:13:26.288Z,2
2018-02-09T10:14:26.258Z,2
2018-02-09T10:15:26.493Z,2
2018-02-09T10:16:26.297Z,2
2018-02-09T10:17:26.255Z,2
2018-02-09T10:18:26.290Z,2
2018-02-09T10:19:26.246Z,2
2018-02-09T10:20:26.230Z,2
2018-02-09T10:21:26.400Z,2
2018-02-09T10:22:26.100Z,1.94
2018-02-09T10:23:26.044Z,2
2018-02-09T10:24:26.077Z,2
2018-02-09T10:25:26.048Z,2
2018-02-09T10:26:26.117Z,2
2018-02-09T10:27:26.031Z,2
2018-02-09T10:28:26.012Z,2
2018-02-09T10:29:26.065Z,2.06
2018-02-09T10:30:26.359Z,2
2018-02-09T10:31:26.165Z,2.06
2018-02-09T10:32:26.200Z,2.06
2018-02-09T10:33:26.095Z,2.06
2018-02-09T10:34:26.204Z,2.06
2018-02-09T10:35:26.224Z,2.06
2018-02-09T10:36:26.149Z,2.06
2018-02-09T10:37:26.179Z,2.06
2018-02-09T10:38:26.025Z,2.12
2018-02-09T10:39:26.100Z,2.12
2018-02-09T10:40:26.083Z,2.06
2018-02-09T10:41:26.470Z,2.06
2018-02-09T10:42:26.097Z,2.12
2018-02-09T10:43:26.208Z,2.12
2018-02-09T10:44:26.149Z,2.12
2018-02-09T10:45:26.131Z,2.12
2018-02-09T10:46:26.227Z,2.12
2018-02-09T10:47:26.205Z,2.12
2018-02-09T10:48:26.156Z,2.12
2018-02-09T10:49:26.247Z,2.12
2018-02-09T10:50:26.020Z,2.12
2018-02-09T10:51:26.118Z,2.12
2018-02-09T10:52:26.065Z,2.19
2018-02-09T10:53:26.108Z,2.19
2018-02-09T10:54:26.208Z,2.19
2018-02-09T10:55:26.176Z,2.25
2018-02-09T10:56:26.184Z,2.19
2018-02-09T10:57:26.249Z,2.25
2018-02-09T10:58:26.103Z,2.25
2018-02-09T10:59:26.316Z,2.25
2018-02-09T11:00:26.082Z,2.31
2018-02-09T11:01:26.415Z,2.31
2018-02-09T11:02:26.161Z,2.31
2018-02-09T11:03:26.168Z,2.25
2018-02-09T11:04:26.011Z,2.31
2018-02-09T11:05:26.120Z,2.25
2018-02-09T11:06:26.070Z,2.31
2018-02-09T11:07:26.063Z,2.31
2018-02-09T11:08:26.108Z,2.37
2018-02-09T11:09:26.013Z,2.31
2018-02-09T11:10:26.150Z,2.31
2018-02-09T11:11:26.222Z,2.31
2018-02-09T11:12:25.971Z,2.31
2018-02-09T11:13:26.209Z,2.31
2018-02-09T11:14:26.099Z,2.37
2018-02-09T11:15:25.984Z,2.31
2018-02-09T11:16:26.330Z,2.37
2018-02-09T11:17:26.008Z,2.37
2018-02-09T11:18:26.048Z,2.31
2018-02-09T11:19:26.147Z,2.37
2018-02-09T11:20:26.135Z,2.37
2018-02-09T11:21:25.957Z,2.37
2018-02-09T11:22:25.858Z,2.37
2018-02-09T11:23:26.018Z,2.37
2018-02-09T11:24:26.074Z,2.37
2018-02-09T11:25:25.981Z,2.37
2018-02-09T11:26:25.939Z,2.37
2018-02-09T11:27:25.855Z,2.37
2018-02-09T11:28:26.066Z,2.37
2018-02-09T11:29:26.009Z,2.44
2018-02-09T11:30:26.037Z,2.37
2018-02-09T11:31:25.941Z,2.44
2018-02-09T11:32:26.040Z,2.44
2018-02-09T11:33:26.111Z,2.44
2018-02-09T11:34:26.059Z,2.44
2018-02-09T11:35:25.964Z,2.44
2018-02-09T11:36:25.871Z,2.5
2018-02-09T11:37:26.029Z,2.5
2018-02-09T11:38:25.906Z,2.5
2018-02-09T11:39:25.940Z,2.5
2018-02-09T11:40:25.902Z,2.56
2018-02-09T11:41:26.001Z,2.5
2018-02-09T11:42:25.947Z,2.56
2018-02-09T11:43:25.832Z,2.5
2018-02-09T11:44:26.058Z,2.5
2018-02-09T11:45:25.897Z,2.56
2018-02-09T11:46:25.937Z,2.56
2018-02-09T11:47:26.089Z,2.62
2018-02-09T11:48:25.970Z,2.56
2018-02-09T11:49:25.902Z,2.56
2018-02-09T11:50:25.851Z,2.62
2018-02-09T11:51:26.020Z,2.62
2018-02-09T11:52:26.290Z,2.56
2018-02-09T11:53:25.786Z,2.62
2018-02-09T11:54:25.805Z,2.62
2018-02-09T11:55:25.857Z,2.62
2018-02-09T11:56:25.886Z,2.62
2018-02-09T11:57:25.826Z,2.62
2018-02-09T11:58:25.922Z,2.62
2018-02-09T11:59:26.095Z,2.62
2018-02-09T12:00:25.867Z,2.69
2018-02-09T12:01:25.854Z,2.69
2018-02-09T12:02:25.954Z,2.69
2018-02-09T12:03:25.870Z,2.75
2018-02-09T12:04:25.812Z,2.75
2018-02-09T12:05:25.950Z,2.75
2018-02-09T12:06:25.733Z,2.75
2018-02-09T12:07:25.905Z,2.75
2018-02-09T12:08:25.812Z,2.81
2018-02-09T12:09:26.042Z,2.81
2018-02-09T12:10:25.917Z,2.81
2018-02-09T12:11:26.072Z,2.81
2018-02-09T12:12:26.058Z,2.81
2018-02-09T12:13:25.974Z,2.94
2018-02-09T12:14:25.919Z,2.87
2018-02-09T12:15:25.977Z,2.94
2018-02-09T12:16:26.086Z,2.94
2018-02-09T12:17:25.885Z,2.94
2018-02-09T12:18:25.880Z,3
2018-02-09T12:19:25.888Z,2.94
2018-02-09T12:20:25.847Z,3
2018-02-09T12:21:26.042Z,3
2018-02-09T12:22:26.076Z,3
2018-02-09T12:23:26.260Z,2.94
2018-02-09T12:24:26.228Z,3
2018-02-09T12:25:25.866Z,2.94
2018-02-09T12:26:25.949Z,3
2018-02-09T12:27:25.905Z,3
2018-02-09T12:28:26.143Z,3
2018-02-09T12:29:26.058Z,3
2018-02-09T12:30:25.954Z,3
2018-02-09T12:31:26.382Z,3.06
2018-02-09T12:32:25.956Z,3.06
2018-02-09T12:33:26.106Z,3.06
2018-02-09T12:34:25.969Z,3.12
2018-02-09T12:35:25.804Z,3.12
2018-02-09T12:36:25.800Z,3.12
2018-02-09T12:37:25.907Z,3.12
2018-02-09T12:38:25.847Z,3.12
2018-02-09T12:39:26.242Z,3.12
2018-02-09T12:40:26.035Z,3.12
2018-02-09T12:41:25.867Z,3.12
2018-02-09T12:42:26.103Z,3.12
2018-02-09T12:43:26.067Z,3.12
2018-02-09T12:44:26.279Z,3.06
2018-02-09T12:45:26.014Z,3.12
2018-02-09T12:46:26.021Z,3.12
2018-02-09T12:47:26.356Z,3.12
2018-02-09T12:48:25.988Z,3.12
2018-02-09T12:49:26.073Z,3.12
2018-02-09T12:50:26.074Z,3.12
2018-02-09T12:51:26.072Z,3.12
2018-02-09T12:52:25.983Z,3.12
2018-02-09T12:53:25.841Z,3.12
2018-02-09T12:54:25.827Z,3.12
2018-02-09T12:55:25.762Z,3.12
2018-02-09T12:56:26.009Z,3.12
2018-02-09T12:57:25.981Z,3.12
2018-02-09T12:58:25.912Z,3.06
2018-02-09T12:59:25.870Z,3.12
2018-02-09T13:00:25.934Z,3.12
2018-02-09T13:01:25.834Z,3.12
2018-02-09T13:02:25.915Z,3.12
2018-02-09T13:03:25.766Z,3.12
2018-02-09T13:04:25.907Z,3.12
2018-02-09T13:05:25.815Z,3.12
2018-02-09T13:06:25.958Z,3.12
2018-02-09T13:07:25.783Z,3.12
2018-02-09T13:08:25.775Z,3.12
2018-02-09T13:09:25.860Z,3.12
2018-02-09T13:10:25.892Z,3.12
2018-02-09T13:11:25.854Z,3.12
2018-02-09T13:12:25.789Z,3.12
2018-02-09T13:13:25.765Z,3.19
2018-02-09T13:14:25.712Z,3.19
2018-02-09T13:15:25.891Z,3.25
2018-02-09T13:16:25.921Z,3.19
2018-02-09T13:17:25.945Z,3.19
2018-02-09T13:18:30.532Z,3.19
2018-02-09T13:19:25.939Z,3.19
2018-02-09T13:20:25.814Z,3.25
2018-02-09T13:21:25.977Z,3.19
2018-02-09T13:22:25.876Z,3.25
2018-02-09T13:23:25.901Z,3.25
2018-02-09T13:24:25.741Z,3.25
2018-02-09T13:25:25.887Z,3.25
2018-02-09T13:26:25.796Z,3.31
2018-02-09T13:27:25.804Z,3.25
2018-02-09T13:28:25.945Z,3.31
2018-02-09T13:29:25.746Z,3.25
2018-02-09T13:30:25.787Z,3.25
2018-02-09T13:31:25.719Z,3.25
2018-02-09T13:32:25.836Z,3.25